Saddle River, New Jersey
Current Conditions -  °F | °C
As of 1:22 PM on Thursday 23 Oct 2014 (Local Time) from KTEB Reporting Station
Light Rain Light Rain  
Wind Chill: 11°   Ceiling: 3600
Heat Index: 11°   Visibility: 5mi
Dew Point:   Wind: 13mph
Humidity: 82%   Direction: 350°N
Pressure: 29.7"   Gusts: 18mph
Location:  41.03°N, 74.1°W
Report Text: KTEB 231722Z 35011G16KT 5SM -RA FEW017 SCT021 OVC036 11/08 A2970 RMK AO2 P0001
Loading
Personal Weather Stations






























Interactive Weather Map
Tropical Storm Tracking
New forecast layout! Learn more

10-Day Weather Forecast

Advertisements
Track Severe Weather on mobile